Time;durP1;ratioP1;P1;durP2;ratioP2;P2;SDS_P1;SDS_P2;PMS_P1;PMS_P2;Temp;Humidity;BMP_temperature;BMP_pressure;BME280_temperature;BME280_humidity;BME280_pressure;Samples;Min_cycle;Max_cycle;Signal;HPM_P1;HPM_P2
2022/10/24 00:01:41;;;;;;;1999.90;999.90;;;18.00;99.90;;;;;;5013979;28;20100;-87
2022/10/24 00:04:07;;;;;;;1999.90;999.90;;;18.00;99.90;;;;;;5031161;28;20029;-86
2022/10/24 00:06:33;;;;;;;1999.90;999.90;;;18.00;99.90;;;;;;5013618;28;20560;-87
2022/10/24 00:08:59;;;;;;;1999.90;999.90;;;18.00;99.90;;;;;;5031669;28;20122;-87
2022/10/24 00:11:26;;;;;;;1999.90;999.90;;;18.00;99.90;;;;;;5041690;28;20052;-86
2022/10/24 00:13:54;;;;;;;1999.90;999.90;;;18.00;99.90;;;;;;5052389;28;20028;-86
2022/10/24 00:16:20;;;;;;;1999.90;999.90;;;18.00;99.90;;;;;;5037680;28;20098;-87
2022/10/24 00:18:46;;;;;;;1999.90;999.90;;;17.90;99.90;;;;;;5036710;28;20488;-86
2022/10/24 00:21:12;;;;;;;1999.90;999.90;;;17.90;99.90;;;;;;5054897;28;20040;-86
2022/10/24 00:23:38;;;;;;;1999.90;999.90;;;17.90;99.90;;;;;;5054259;28;20033;-87
2022/10/24 00:26:04;;;;;;;1999.90;999.90;;;17.90;99.90;;;;;;5055166;28;20136;-86
2022/10/24 00:28:32;;;;;;;1999.90;999.90;;;17.90;99.90;;;;;;5048976;28;20501;-87
2022/10/24 00:30:58;;;;;;;1999.90;999.90;;;17.80;99.90;;;;;;5008861;28;20057;-86
2022/10/24 00:33:24;;;;;;;1999.90;999.90;;;17.80;99.90;;;;;;5035068;28;20503;-87
2022/10/24 00:35:50;;;;;;;1999.90;999.90;;;17.80;99.90;;;;;;5034846;28;20026;-86
2022/10/24 00:38:16;;;;;;;1999.90;999.90;;;17.80;99.90;;;;;;5034933;28;20029;-87
2022/10/24 00:40:42;;;;;;;1999.90;999.90;;;17.80;99.90;;;;;;5034039;28;20113;-87
2022/10/24 00:43:15;;;;;;;1999.90;999.90;;;17.90;99.90;;;;;;5035089;28;20022;-86
2022/10/24 00:45:46;;;;;;;;;;;17.80;99.90;;;;;;5035361;28;20496;-86
2022/10/24 00:48:26;;;;;;;1999.90;999.90;;;17.80;99.90;;;;;;5016868;28;19948;-87
2022/10/24 00:51:14;;;;;;;1999.90;999.90;;;17.80;99.90;;;;;;5016162;28;20034;-86
2022/10/24 00:53:46;;;;;;;1999.90;999.90;;;17.80;99.90;;;;;;4989344;28;20077;-87
2022/10/24 00:56:14;;;;;;;1999.90;999.90;;;17.80;99.90;;;;;;5018142;28;20087;-86
2022/10/24 00:58:42;;;;;;;1999.90;999.90;;;17.80;99.90;;;;;;5034678;28;20030;-86
2022/10/24 01:01:09;;;;;;;1999.90;999.90;;;17.80;99.90;;;;;;5034809;28;20025;-86
2022/10/24 01:03:35;;;;;;;1999.90;999.90;;;17.80;99.90;;;;;;5033095;28;20036;-87
2022/10/24 01:06:11;;;;;;;1999.90;999.90;;;17.80;99.90;;;;;;5016305;28;20037;-86
2022/10/24 01:08:48;;;;;;;1999.90;999.90;;;17.90;99.90;;;;;;5034680;28;20029;-86
2022/10/24 01:11:42;;;;;;;1999.90;999.90;;;17.90;99.90;;;;;;5015570;28;20443;-87
2022/10/24 01:14:46;;;;;;;1999.90;999.90;;;17.90;99.90;;;;;;5036275;28;20025;-86
2022/10/24 01:17:53;;;;;;;1999.90;999.90;;;17.90;99.90;;;;;;5026267;28;20051;-87
2022/10/24 01:20:46;;;;;;;1999.90;999.90;;;17.80;99.90;;;;;;5032864;28;20041;-84
2022/10/24 01:23:12;;;;;;;1999.90;999.90;;;17.80;99.90;;;;;;5034320;28;20025;-87
2022/10/24 01:26:03;;;;;;;1999.90;999.90;;;17.70;99.90;;;;;;5032911;28;20511;-87
2022/10/24 01:28:52;;;;;;;1999.90;999.90;;;17.70;99.90;;;;;;5031289;28;20136;-86
2022/10/24 01:31:30;;;;;;;1999.90;999.90;;;17.60;99.90;;;;;;5043489;28;20032;-86
2022/10/24 01:34:08;;;;;;;1999.90;999.90;;;17.60;99.90;;;;;;5053842;28;20017;-86
2022/10/24 01:36:56;;;;;;;1999.90;999.90;;;17.60;99.90;;;;;;5053692;28;20044;-86
2022/10/24 01:39:27;;;;;;;1999.90;999.90;;;17.60;99.90;;;;;;5048063;28;20104;-86
2022/10/24 01:41:56;;;;;;;1999.90;999.90;;;17.60;99.90;;;;;;5015873;28;20511;-86
2022/10/24 01:44:30;;;;;;;1999.90;999.90;;;17.60;99.90;;;;;;5033918;28;20086;-86
2022/10/24 01:47:00;;;;;;;1999.90;999.90;;;17.60;99.90;;;;;;5033854;28;20025;-86
2022/10/24 01:49:31;;;;;;;1999.90;999.90;;;17.50;99.90;;;;;;5033669;28;20021;-87
2022/10/24 01:52:00;;;;;;;1999.90;999.90;;;17.60;99.90;;;;;;5033363;28;20084;-87
2022/10/24 01:54:29;;;;;;;1999.90;999.90;;;17.60;99.90;;;;;;5033800;28;20152;-86
2022/10/24 01:56:55;;;;;;;1999.90;999.90;;;17.50;99.90;;;;;;5033656;28;20029;-87
2022/10/24 01:59:27;;;;;;;1999.90;999.90;;;17.50;99.90;;;;;;5015684;28;20025;-86
2022/10/24 02:01:58;;;;;;;1999.90;999.90;;;17.50;99.90;;;;;;5015428;28;20483;-86
2022/10/24 02:04:26;;;;;;;1999.90;999.90;;;17.60;99.90;;;;;;5033433;28;20108;-86
2022/10/24 02:06:55;;;;;;;1999.90;999.90;;;17.60;99.90;;;;;;5033328;28;20071;-86
2022/10/24 02:09:23;;;;;;;1999.90;999.90;;;17.60;99.90;;;;;;5032988;28;20029;-86
2022/10/24 02:11:51;;;;;;;1999.90;999.90;;;17.60;99.90;;;;;;5048879;28;20067;-87
2022/10/24 02:14:24;;;;;;;1999.90;999.90;;;17.60;99.90;;;;;;5053272;28;20033;-86
2022/10/24 02:16:50;;;;;;;1999.90;999.90;;;17.60;99.90;;;;;;5046298;28;20491;-86
2022/10/24 02:19:17;;;;;;;1999.90;999.90;;;17.60;99.90;;;;;;5033254;28;20510;-87
2022/10/24 02:21:54;;;;;;;1999.90;999.90;;;17.60;99.90;;;;;;5032688;28;20026;-86
2022/10/24 02:24:36;;;;;;;1999.90;999.90;;;17.60;99.90;;;;;;5032823;28;20435;-87
2022/10/24 02:27:23;;;;;;;1999.90;999.90;;;17.50;99.90;;;;;;5032856;28;20031;-86
2022/10/24 02:30:04;;;;;;;1999.90;999.90;;;17.50;99.90;;;;;;5016522;28;20188;-87
2022/10/24 02:32:40;;;;;;;1999.90;999.90;;;17.50;99.90;;;;;;5034971;28;20029;-86
2022/10/24 02:35:07;;;;;;;1999.90;999.90;;;17.50;99.90;;;;;;5053151;28;20425;-86
2022/10/24 02:37:35;;;;;;;1999.90;999.90;;;17.40;99.90;;;;;;5051746;28;20476;-86
2022/10/24 02:40:04;;;;;;;1999.90;999.90;;;17.50;99.90;;;;;;5045856;28;20037;-86
2022/10/24 02:42:31;;;;;;;1999.90;999.90;;;17.40;99.90;;;;;;5032765;28;20025;-86
2022/10/24 02:44:58;;;;;;;1999.90;999.90;;;17.40;99.90;;;;;;5014850;28;20036;-87
2022/10/24 02:47:25;;;;;;;1999.90;999.90;;;17.50;99.90;;;;;;5032687;28;20029;-87
2022/10/24 02:49:52;;;;;;;1999.90;999.90;;;17.50;99.90;;;;;;5013485;28;20611;-86
2022/10/24 02:52:18;;;;;;;1999.90;999.90;;;17.40;99.90;;;;;;5032210;28;20037;-87
2022/10/24 02:54:44;;;;;;;1999.90;999.90;;;17.40;99.90;;;;;;5032757;28;20033;-86
2022/10/24 02:57:10;;;;;;;1999.90;999.90;;;17.40;99.90;;;;;;5032421;28;20092;-86
2022/10/24 02:59:35;;;;;;;1999.90;999.90;;;17.40;99.90;;;;;;5014694;28;20373;-89
2022/10/24 03:02:01;;;;;;;1999.90;999.90;;;17.40;99.90;;;;;;5032308;28;20078;-85
2022/10/24 03:04:26;;;;;;;1999.90;999.90;;;17.40;99.90;;;;;;5032344;28;20037;-87
2022/10/24 03:06:52;;;;;;;1999.90;999.90;;;17.40;99.90;;;;;;5031556;28;20025;-86
2022/10/24 03:09:18;;;;;;;1999.90;999.90;;;17.40;99.90;;;;;;5031309;28;20055;-87
2022/10/24 03:11:44;;;;;;;1999.90;999.90;;;17.40;99.90;;;;;;5031930;28;20312;-86
2022/10/24 03:14:09;;;;;;;1999.90;999.90;;;17.50;99.90;;;;;;5032018;28;20025;-88
2022/10/24 03:16:35;;;;;;;1999.90;999.90;;;17.40;99.90;;;;;;5032245;28;20075;-86
2022/10/24 03:19:01;;;;;;;1999.90;999.90;;;17.40;99.90;;;;;;5014464;28;20029;-87
2022/10/24 03:21:26;;;;;;;1999.90;999.90;;;17.40;99.90;;;;;;5031638;28;20060;-86
2022/10/24 03:23:52;;;;;;;1999.90;999.90;;;17.40;99.90;;;;;;5014027;28;20026;-87
2022/10/24 03:26:18;;;;;;;1999.90;999.90;;;17.40;99.90;;;;;;5031158;28;20022;-87
2022/10/24 03:28:43;;;;;;;1999.90;999.90;;;17.40;99.90;;;;;;5027439;28;20037;-86
2022/10/24 03:31:09;;;;;;;1999.90;999.90;;;17.30;99.90;;;;;;5031913;28;20547;-86
2022/10/24 03:33:35;;;;;;;1999.90;999.90;;;17.30;99.90;;;;;;5041372;28;20036;-86
2022/10/24 03:36:01;;;;;;;1999.90;999.90;;;17.30;99.90;;;;;;5056079;28;20069;-87
2022/10/24 03:38:26;;;;;;;1999.90;999.90;;;17.30;99.90;;;;;;5047627;28;20039;-87
2022/10/24 03:40:52;;;;;;;1999.90;999.90;;;17.30;99.90;;;;;;5031501;28;20031;-88
2022/10/24 03:43:18;;;;;;;1999.90;999.90;;;17.30;99.90;;;;;;5035035;28;20040;-87
2022/10/24 03:45:44;;;;;;;1999.90;999.90;;;17.30;99.90;;;;;;5053321;28;20025;-87
2022/10/24 03:48:10;;;;;;;1999.90;999.90;;;17.30;99.90;;;;;;5016816;28;20169;-86
2022/10/24 03:50:35;;;;;;;1999.90;999.90;;;17.30;99.90;;;;;;5028754;28;20083;-87
2022/10/24 03:53:02;;;;;;;1999.90;999.90;;;17.30;99.90;;;;;;5031725;28;20512;-86
2022/10/24 03:55:28;;;;;;;1999.90;999.90;;;17.30;99.90;;;;;;5013857;28;20032;-86
2022/10/24 03:57:54;;;;;;;1999.90;999.90;;;17.30;99.90;;;;;;5013572;28;20030;-87
2022/10/24 04:00:20;;;;;;;1999.90;999.90;;;17.30;99.90;;;;;;5013930;28;20053;-87
2022/10/24 04:02:46;;;;;;;1999.90;999.90;;;17.30;99.90;;;;;;5031658;28;20040;-86
2022/10/24 04:05:13;;;;;;;1999.90;999.90;;;17.30;99.90;;;;;;5028804;28;20029;-86
2022/10/24 04:07:38;;;;;;;1999.90;999.90;;;17.30;99.90;;;;;;5011598;28;20405;-86
2022/10/24 04:10:05;;;;;;;1999.90;999.90;;;17.20;99.90;;;;;;5018235;28;20025;-86
2022/10/24 04:12:31;;;;;;;1999.90;999.90;;;17.30;99.90;;;;;;5051210;28;20040;-87
2022/10/24 04:14:57;;;;;;;1999.90;999.90;;;17.20;99.90;;;;;;5033753;28;20017;-86
2022/10/24 04:17:22;;;;;;;1999.90;999.90;;;17.20;99.90;;;;;;5021975;28;20484;-86
2022/10/24 04:19:48;;;;;;;1999.90;999.90;;;17.10;99.90;;;;;;5030536;28;20037;-86
2022/10/24 04:22:14;;;;;;;1999.90;999.90;;;17.20;99.90;;;;;;5030697;28;20049;-86
2022/10/24 04:24:39;;;;;;;1999.90;999.90;;;17.10;99.90;;;;;;5031109;28;20392;-87
2022/10/24 04:27:06;;;;;;;1999.90;999.90;;;17.10;99.90;;;;;;5030756;28;20041;-86
2022/10/24 04:29:32;;;;;;;1999.90;999.90;;;17.10;99.90;;;;;;5022672;28;20064;-86
2022/10/24 04:31:58;;;;;;;1999.90;999.90;;;17.10;99.90;;;;;;5011575;28;20034;-87
2022/10/24 04:34:23;;;;;;;1999.90;999.90;;;17.00;99.90;;;;;;5011376;28;20079;-87
2022/10/24 04:36:49;;;;;;;1999.90;999.90;;;17.00;99.90;;;;;;4993186;28;20042;-86
2022/10/24 04:39:15;;;;;;;1999.90;999.90;;;17.00;99.90;;;;;;5028679;28;20037;-85
2022/10/24 04:41:40;;;;;;;1999.90;999.90;;;17.00;99.90;;;;;;5031097;28;20037;-87
2022/10/24 04:44:06;;;;;;;1999.90;999.90;;;17.00;99.90;;;;;;5030464;28;20041;-86
2022/10/24 04:46:32;;;;;;;1999.90;999.90;;;17.00;99.90;;;;;;5031014;28;20061;-86
2022/10/24 04:48:57;;;;;;;1999.90;999.90;;;17.00;99.90;;;;;;5012569;28;20021;-86
2022/10/24 04:51:23;;;;;;;1999.90;999.90;;;17.00;99.90;;;;;;5030793;28;20057;-86
2022/10/24 04:53:50;;;;;;;1999.90;999.90;;;17.00;99.90;;;;;;5031160;28;20045;-87
2022/10/24 04:56:15;;;;;;;1999.90;999.90;;;16.90;99.90;;;;;;5013164;28;20025;-87
2022/10/24 04:58:41;;;;;;;1999.90;999.90;;;16.90;99.90;;;;;;5031016;28;20817;-87
2022/10/24 05:01:07;;;;;;;1999.90;999.90;;;16.80;99.90;;;;;;5033590;28;20050;-86
2022/10/24 05:03:32;;;;;;;1999.90;999.90;;;16.80;99.90;;;;;;5033153;28;20042;-86
2022/10/24 05:05:58;;;;;;;1999.90;999.90;;;16.80;99.90;;;;;;5034161;28;20025;-86
2022/10/24 05:08:24;;;;;;;1999.90;999.90;;;16.80;99.90;;;;;;5034540;28;20052;-86
2022/10/24 05:10:49;;;;;;;1999.90;999.90;;;16.80;99.90;;;;;;5034581;28;20056;-86
2022/10/24 05:13:15;;;;;;;1999.90;999.90;;;16.70;99.90;;;;;;5034392;28;20033;-86
2022/10/24 05:15:42;;;;;;;1999.90;999.90;;;16.70;99.90;;;;;;5016781;28;20053;-86
2022/10/24 05:18:07;;;;;;;1999.90;999.90;;;16.70;99.90;;;;;;5034856;28;20033;-86
2022/10/24 05:20:33;;;;;;;1999.90;999.90;;;16.70;99.90;;;;;;5033959;28;20447;-86
2022/10/24 05:22:59;;;;;;;1999.90;999.90;;;16.70;99.90;;;;;;5034200;28;20040;-87
2022/10/24 05:25:24;;;;;;;1999.90;999.90;;;16.60;99.90;;;;;;5034147;28;20481;-86
2022/10/24 05:27:50;;;;;;;1999.90;999.90;;;16.60;99.90;;;;;;5033245;28;20087;-86
2022/10/24 05:30:16;;;;;;;1999.90;999.90;;;16.60;99.90;;;;;;5021693;28;20029;-87
2022/10/24 05:32:42;;;;;;;1999.90;999.90;;;16.60;99.90;;;;;;5014408;28;20065;-86
2022/10/24 05:35:08;;;;;;;1999.90;999.90;;;16.60;99.90;;;;;;5014487;28;20057;-86
2022/10/24 05:37:34;;;;;;;1999.90;999.90;;;16.70;99.90;;;;;;5016266;28;20390;-86
2022/10/24 05:39:59;;;;;;;1999.90;999.90;;;16.70;99.90;;;;;;5015432;28;20036;-87
2022/10/24 05:42:25;;;;;;;1999.90;999.90;;;16.80;99.90;;;;;;5033898;28;20037;-86
2022/10/24 05:44:51;;;;;;;1999.90;999.90;;;16.80;99.90;;;;;;5033783;28;20100;-87
2022/10/24 05:47:17;;;;;;;1999.90;999.90;;;16.80;99.90;;;;;;5015847;28;20381;-86
2022/10/24 05:49:42;;;;;;;1999.90;999.90;;;16.80;99.90;;;;;;5015831;28;20455;-87
2022/10/24 05:52:08;;;;;;;1999.90;999.90;;;16.80;99.90;;;;;;5033212;28;20496;-87
2022/10/24 05:54:34;;;;;;;1999.90;999.90;;;16.80;99.90;;;;;;5033790;28;20116;-87
2022/10/24 05:56:59;;;;;;;1999.90;999.90;;;16.80;99.90;;;;;;5033565;28;20033;-86
2022/10/24 05:59:25;;;;;;;1999.90;999.90;;;16.80;99.90;;;;;;5033604;28;20029;-86
2022/10/24 06:01:51;;;;;;;1999.90;999.90;;;16.80;99.90;;;;;;5014647;28;20139;-86
2022/10/24 06:04:16;;;;;;;1999.90;999.90;;;16.80;99.90;;;;;;5033521;28;20032;-87
2022/10/24 06:06:43;;;;;;;1999.90;999.90;;;16.80;99.90;;;;;;5044689;28;20021;-84
2022/10/24 06:09:10;;;;;;;1999.90;999.90;;;16.70;99.90;;;;;;5031305;28;20080;-86
2022/10/24 06:11:36;;;;;;;1999.90;999.90;;;16.70;99.90;;;;;;5031160;28;20021;-85
2022/10/24 06:14:03;;;;;;;1999.90;999.90;;;16.70;99.90;;;;;;5031630;28;20044;-86
2022/10/24 06:16:29;;;;;;;1999.90;999.90;;;16.70;99.90;;;;;;5033081;28;20040;-87
2022/10/24 06:18:56;;;;;;;1999.90;999.90;;;16.70;99.90;;;;;;5029424;28;20037;-87
2022/10/24 06:21:22;;;;;;;1999.90;999.90;;;16.70;99.90;;;;;;5031278;28;20025;-85
2022/10/24 06:23:47;;;;;;;1999.90;999.90;;;16.70;99.90;;;;;;5032016;28;20396;-85
2022/10/24 06:26:13;;;;;;;1999.90;999.90;;;16.70;99.90;;;;;;5032570;28;20033;-86
2022/10/24 06:28:40;;;;;;;1999.90;999.90;;;16.60;99.90;;;;;;5030635;28;20145;-86
2022/10/24 06:31:07;;;;;;;1999.90;999.90;;;16.60;99.90;;;;;;4995157;28;20113;-87
2022/10/24 06:33:33;;;;;;;1999.90;999.90;;;16.70;99.90;;;;;;5001723;28;20079;-88
2022/10/24 06:36:00;;;;;;;1999.90;999.90;;;16.70;99.90;;;;;;5037788;28;20032;-86
2022/10/24 06:38:26;;;;;;;1999.90;999.90;;;16.80;99.90;;;;;;5052304;28;20021;-85
2022/10/24 06:40:52;;;;;;;1999.90;999.90;;;16.80;99.90;;;;;;5034377;28;20048;-85
2022/10/24 06:43:18;;;;;;;1999.90;999.90;;;16.90;99.90;;;;;;5012707;28;20539;-87
2022/10/24 06:45:44;;;;;;;1999.90;999.90;;;16.90;99.90;;;;;;5010268;28;20551;-87
2022/10/24 06:48:10;;;;;;;1999.90;999.90;;;17.00;99.90;;;;;;4994848;28;20038;-86
2022/10/24 06:50:39;;;;;;;1999.90;999.90;;;17.00;99.90;;;;;;5014201;28;20097;-86
2022/10/24 06:53:06;;;;;;;1999.90;999.90;;;17.00;99.90;;;;;;5032442;28;20050;-86
2022/10/24 06:55:32;;;;;;;1999.90;999.90;;;17.00;99.90;;;;;;5014467;28;20068;-86
2022/10/24 06:57:57;;;;;;;1999.90;999.90;;;17.00;99.90;;;;;;5043126;28;20545;-86
2022/10/24 07:00:23;;;;;;;1999.90;999.90;;;17.00;99.90;;;;;;5012670;28;20029;-80
2022/10/24 07:02:49;;;;;;;1999.90;999.90;;;17.10;99.90;;;;;;5025282;28;20044;-81
2022/10/24 07:05:14;;;;;;;1999.90;999.90;;;17.10;99.90;;;;;;5031918;28;20037;-80
2022/10/24 07:07:41;;;;;;;1999.90;999.90;;;17.10;99.90;;;;;;5031308;28;20056;-81
2022/10/24 07:10:09;;;;;;;1999.90;999.90;;;17.10;99.90;;;;;;5030957;28;20018;-81
2022/10/24 07:12:36;;;;;;;1999.90;999.90;;;17.20;99.90;;;;;;5009554;28;20057;-80
2022/10/24 07:15:03;;;;;;;1999.90;999.90;;;17.30;99.90;;;;;;5001601;28;20025;-81
2022/10/24 07:17:29;;;;;;;1999.90;999.90;;;17.30;99.90;;;;;;5006453;28;20040;-80
2022/10/24 07:19:55;;;;;;;1999.90;999.90;;;17.30;99.90;;;;;;5006711;28;20405;-81
2022/10/24 07:22:21;;;;;;;1999.90;999.90;;;17.40;99.90;;;;;;5005502;28;20034;-80
2022/10/24 07:24:52;;;;;;;1999.90;999.90;;;17.40;99.90;;;;;;5009214;28;20056;-81
2022/10/24 07:27:18;;;;;;;1999.90;999.90;;;17.40;99.90;;;;;;4992516;28;20030;-79
2022/10/24 07:29:44;;;;;;;1999.90;999.90;;;17.40;99.90;;;;;;5009671;28;20085;-79
2022/10/24 07:32:09;;;;;;;1999.90;999.90;;;17.40;99.90;;;;;;5009970;28;20053;-79
2022/10/24 07:34:35;;;;;;;1999.90;999.90;;;17.50;99.90;;;;;;5010075;28;20059;-81
2022/10/24 07:37:03;;;;;;;1999.90;999.90;;;17.50;99.90;;;;;;5009514;28;20060;-81
2022/10/24 07:39:29;;;;;;;1999.90;999.90;;;17.50;99.90;;;;;;5006389;28;20030;-80
2022/10/24 07:41:54;;;;;;;1999.90;999.90;;;17.60;99.90;;;;;;5008692;28;20049;-80
2022/10/24 07:44:20;;;;;;;1999.90;999.90;;;17.60;99.90;;;;;;5010969;28;20056;-79
2022/10/24 07:46:45;;;;;;;1999.90;999.90;;;17.60;99.90;;;;;;4991433;28;20022;-81
2022/10/24 07:49:11;;;;;;;1999.90;999.90;;;17.70;99.90;;;;;;5002733;28;20026;-80
2022/10/24 07:51:37;;;;;;;1999.90;999.90;;;17.70;99.90;;;;;;5010559;28;20073;-82
2022/10/24 07:54:03;;;;;;;1999.90;999.90;;;17.70;99.90;;;;;;5011298;28;20540;-82
2022/10/24 07:56:28;;;;;;;1999.90;999.90;;;17.70;99.90;;;;;;5010175;28;20093;-80
2022/10/24 07:58:55;;;;;;;1999.90;999.90;;;17.70;99.90;;;;;;4993159;28;20026;-81
2022/10/24 08:01:23;;;;;;;1999.90;999.90;;;17.80;99.90;;;;;;5011913;28;20026;-81
2022/10/24 08:03:49;;;;;;;1999.90;999.90;;;17.90;99.90;;;;;;5010822;28;20049;-80
2022/10/24 08:06:21;;;;;;;1999.90;999.90;;;17.90;99.90;;;;;;5010791;28;20033;-80
2022/10/24 08:08:47;;;;;;;1999.90;999.90;;;18.00;99.90;;;;;;4993914;28;20021;-81
2022/10/24 08:11:20;;;;;;;1999.90;999.90;;;18.00;99.90;;;;;;5011092;28;20037;-80
2022/10/24 08:13:46;;;;;;;;;;;18.00;99.90;;;;;;5009760;28;20072;-80
2022/10/24 08:16:13;;;;;;;1999.90;999.90;;;18.10;99.90;;;;;;5023025;28;19918;-78
2022/10/24 08:18:39;;;;;;;1999.90;999.90;;;18.20;99.90;;;;;;5011302;28;20050;-79
2022/10/24 08:21:08;;;;;;;1999.90;999.90;;;18.20;99.90;;;;;;5011248;28;20057;-80
2022/10/24 08:23:37;;;;;;;1999.90;999.90;;;18.30;99.90;;;;;;4974218;28;20026;-77
2022/10/24 08:26:04;;;;;;;1999.90;999.90;;;18.40;99.90;;;;;;5010140;28;20026;-81
2022/10/24 08:28:30;;;;;;;1999.90;999.90;;;18.40;99.90;;;;;;5010544;28;20475;-79
2022/10/24 08:30:56;;;;;;;1999.90;999.90;;;18.60;99.90;;;;;;4973249;28;20227;-80
2022/10/24 08:33:22;;;;;;;1999.90;999.90;;;19.00;99.90;;;;;;4996092;28;20029;-79
2022/10/24 08:35:47;;;;;;;1999.90;999.90;;;19.10;99.90;;;;;;5014202;28;20104;-78
2022/10/24 08:38:13;;;;;;;1999.90;999.90;;;19.20;99.90;;;;;;5014586;28;20429;-79
2022/10/24 08:40:39;;;;;;;1999.90;999.90;;;19.40;99.90;;;;;;5010056;28;20037;-79
2022/10/24 08:43:04;;;;;;;1999.90;999.90;;;19.30;99.90;;;;;;5013743;28;20049;-81
2022/10/24 08:45:50;;;;;;;1999.90;999.90;;;19.30;99.90;;;;;;5015068;28;20025;-78
2022/10/24 08:48:26;;;;;;;1999.90;999.90;;;19.10;99.90;;;;;;5021714;28;20057;-80
2022/10/24 08:51:01;;;;;;;1999.90;999.90;;;19.20;99.90;;;;;;5011057;28;20026;-80
2022/10/24 08:53:28;;;;;;;1999.90;999.90;;;19.20;99.90;;;;;;5026739;28;20539;-79
2022/10/24 08:55:57;;;;;;;1999.90;999.90;;;19.30;99.90;;;;;;5007887;28;20032;-80
2022/10/24 08:58:34;;;;;;;1999.90;999.90;;;19.30;99.90;;;;;;5017482;28;20036;-79
2022/10/24 09:01:03;;;;;;;1999.90;999.90;;;19.40;99.90;;;;;;5014120;28;20080;-79
2022/10/24 09:03:41;;;;;;;1999.90;999.90;;;19.60;99.90;;;;;;5014491;28;20057;-79
2022/10/24 09:06:22;;;;;;;1999.90;999.90;;;20.00;99.90;;;;;;5013778;28;20044;-81
2022/10/24 09:08:53;;;;;;;1999.90;999.90;;;20.30;99.90;;;;;;5014532;28;20022;-80
2022/10/24 09:11:25;;;;;;;1999.90;999.90;;;20.40;99.90;;;;;;5005768;28;20018;-82
2022/10/24 09:13:51;;;;;;;1999.90;999.90;;;20.00;99.90;;;;;;5013337;28;20025;-80
2022/10/24 09:16:21;;;;;;;1999.90;999.90;;;20.00;99.90;;;;;;5014062;28;20025;-80
2022/10/24 09:18:50;;;;;;;1999.90;999.90;;;19.70;99.90;;;;;;5012240;28;20478;-79
2022/10/24 09:21:16;;;;;;;1999.90;999.90;;;19.60;99.90;;;;;;5013736;28;20064;-81
2022/10/24 09:23:42;;;;;;;1999.90;999.90;;;19.40;99.90;;;;;;5014499;28;20030;-79
2022/10/24 09:26:17;;;;;;;1999.90;999.90;;;19.50;99.90;;;;;;5013075;28;20030;-81
2022/10/24 09:28:43;;;;;;;1999.90;999.90;;;19.60;99.90;;;;;;5012805;28;20040;-78
2022/10/24 09:31:20;;;;;;;1999.90;999.90;;;19.50;99.90;;;;;;5013529;28;20022;-81
2022/10/24 09:33:48;;;;;;;1999.90;999.90;;;19.30;99.90;;;;;;4996114;28;20063;-81
2022/10/24 09:36:16;;;;;;;1999.90;999.90;;;19.20;99.90;;;;;;4995738;28;20562;-79
2022/10/24 09:38:43;;;;;;;1999.90;999.90;;;19.30;99.90;;;;;;4996110;28;20034;-81
2022/10/24 09:41:22;;;;;;;1999.90;999.90;;;19.30;99.90;;;;;;4996512;28;20029;-80
2022/10/24 09:43:53;;;;;;;1999.90;999.90;;;19.20;99.90;;;;;;5011839;28;20061;-80
2022/10/24 09:46:26;;;;;;;1999.90;999.90;;;19.30;99.90;;;;;;4994685;28;20033;-81
2022/10/24 09:48:55;;;;;;;1999.90;999.90;;;19.20;99.90;;;;;;5012036;28;20042;-80
2022/10/24 09:51:23;;;;;;;1999.90;999.90;;;19.30;99.90;;;;;;5013575;28;20022;-80
2022/10/24 09:54:05;;;;;;;1999.90;999.90;;;19.40;99.90;;;;;;4995027;28;20152;-83
2022/10/24 09:56:41;;;;;;;1999.90;999.90;;;19.40;99.90;;;;;;5010025;28;20037;-80
2022/10/24 09:59:36;;;;;;;1999.90;999.90;;;19.50;99.90;;;;;;5011171;28;20057;-84
2022/10/24 10:02:23;;;;;;;1999.90;999.90;;;19.50;99.90;;;;;;5012548;28;20516;-82
2022/10/24 10:05:16;;;;;;;1999.90;999.90;;;19.40;99.90;;;;;;5012150;28;20022;-81
2022/10/24 10:07:47;;;;;;;1999.90;999.90;;;19.40;99.90;;;;;;5011252;28;20030;-79
2022/10/24 10:10:32;;;;;;;1999.90;999.90;;;19.40;99.90;;;;;;5012653;28;20028;-80
2022/10/24 10:13:03;;;;;;;1999.90;999.90;;;19.60;99.90;;;;;;4993415;28;20041;-81
2022/10/24 10:15:38;;;;;;;1999.90;999.90;;;20.00;99.90;;;;;;5013075;28;20018;-81
2022/10/24 10:18:32;;;;;;;1999.90;999.90;;;20.30;99.90;;;;;;5004479;28;20045;-80
2022/10/24 10:21:14;;;;;;;1999.90;999.90;;;20.30;99.90;;;;;;5004976;28;20026;-79
2022/10/24 10:23:49;;;;;;;1999.90;999.90;;;20.00;99.90;;;;;;5011169;28;20052;-79
2022/10/24 10:26:43;;;;;;;1999.90;999.90;;;19.90;99.90;;;;;;4994823;28;20038;-81
2022/10/24 10:29:18;;;;;;;1999.90;999.90;;;19.80;99.90;;;;;;5010696;28;20046;-80
2022/10/24 10:31:47;;;;;;;1999.90;999.90;;;19.80;99.90;;;;;;5011407;28;20018;-77
2022/10/24 10:34:26;;;;;;;1999.90;999.90;;;19.80;99.90;;;;;;5024897;28;20018;-80
2022/10/24 10:37:30;;;;;;;1999.90;999.90;;;19.60;99.90;;;;;;5012916;28;20053;-82
2022/10/24 10:40:21;;;;;;;1999.90;999.90;;;19.60;99.90;;;;;;5011053;28;20104;-81
2022/10/24 10:43:06;;;;;;;1999.90;999.90;;;19.50;99.90;;;;;;4993122;28;20034;-82
2022/10/24 10:45:44;;;;;;;1999.90;999.90;;;19.30;99.90;;;;;;4993096;28;20038;-79
2022/10/24 10:48:09;;;;;;;1999.90;999.90;;;19.40;99.90;;;;;;4998380;28;20068;-80
2022/10/24 10:50:50;;;;;;;1999.90;999.90;;;19.70;99.90;;;;;;5012054;28;20515;-80
2022/10/24 10:53:42;;;;;;;1999.90;999.90;;;19.60;99.90;;;;;;5017627;28;20493;-79
2022/10/24 10:56:13;;;;;;;1999.90;999.90;;;19.80;99.90;;;;;;5012083;28;20028;-80
2022/10/24 10:59:14;;;;;;;1999.90;999.90;;;19.90;99.90;;;;;;5011554;28;20029;-80
2022/10/24 11:01:59;;;;;;;1999.90;999.90;;;20.10;99.90;;;;;;5015052;28;20025;-76
2022/10/24 11:04:46;;;;;;;1999.90;999.90;;;20.30;99.90;;;;;;4994142;28;20389;-80
2022/10/24 11:07:33;;;;;;;1999.90;999.90;;;20.20;99.90;;;;;;5010575;28;20175;-79
2022/10/24 11:10:04;;;;;;;1999.90;999.90;;;20.00;99.90;;;;;;5010297;28;20033;-81
2022/10/24 11:12:51;;;;;;;1999.90;999.90;;;19.90;99.90;;;;;;5001775;28;20119;-78
2022/10/24 11:15:26;;;;;;;1999.90;999.90;;;20.00;99.90;;;;;;5011375;28;20060;-79
2022/10/24 11:18:11;;;;;;;1999.90;999.90;;;20.00;99.90;;;;;;5008285;28;20102;-78
2022/10/24 11:20:56;;;;;;;1999.90;999.90;;;20.10;99.90;;;;;;5009944;28;20022;-80
2022/10/24 11:23:28;;;;;;;1999.90;999.90;;;20.00;99.90;;;;;;5011194;28;20059;-79
2022/10/24 11:26:05;;;;;;;1999.90;999.90;;;19.80;99.90;;;;;;5011165;28;20040;-81
2022/10/24 11:28:49;;;;;;;1999.90;999.90;;;20.00;99.90;;;;;;5010822;28;20045;-79
2022/10/24 11:31:22;;;;;;;1999.90;999.90;;;20.30;99.90;;;;;;5009302;28;20029;-81
2022/10/24 11:33:57;;;;;;;;;;;20.20;99.90;;;;;;5017289;28;20029;-80
2022/10/24 11:36:32;;;;;;;1999.90;999.90;;;20.00;99.90;;;;;;5011318;28;19909;-79
2022/10/24 11:39:05;;;;;;;1999.90;999.90;;;19.80;99.90;;;;;;5011084;28;20029;-80
2022/10/24 11:41:42;;;;;;;1999.90;999.90;;;19.70;99.90;;;;;;5009990;28;20448;-78
2022/10/24 11:44:24;;;;;;;1999.90;999.90;;;19.80;99.90;;;;;;5008879;28;20018;-81
2022/10/24 11:47:08;;;;;;;1999.90;999.90;;;19.90;99.90;;;;;;4993444;28;20046;-79
2022/10/24 11:49:39;;;;;;;1999.90;999.90;;;20.00;99.90;;;;;;4991383;28;20048;-80
2022/10/24 11:52:18;;;;;;;1999.90;999.90;;;19.90;99.90;;;;;;5011528;28;20562;-81
2022/10/24 11:55:00;;;;;;;1999.90;999.90;;;20.00;99.90;;;;;;4990042;28;20022;-80
2022/10/24 11:57:28;;;;;;;1999.90;999.90;;;20.10;99.90;;;;;;5008003;28;20153;-81
2022/10/24 11:59:56;;;;;;;1999.90;999.90;;;20.00;99.90;;;;;;5016388;28;20105;-79
2022/10/24 12:02:51;;;;;;;1999.90;999.90;;;19.90;99.90;;;;;;5013382;28;20515;-80
2022/10/24 12:05:44;;;;;;;1999.90;999.90;;;20.00;99.90;;;;;;5001594;28;20022;-80
2022/10/24 12:08:37;;;;;;;1999.90;999.90;;;20.10;99.90;;;;;;5013721;28;20046;-80
2022/10/24 12:11:21;;;;;;;1999.90;999.90;;;20.20;99.90;;;;;;4999330;28;20025;-81
2022/10/24 12:14:02;;;;;;;1999.90;999.90;;;20.00;99.90;;;;;;5014771;28;20036;-80
2022/10/24 12:16:37;;;;;;;1999.90;999.90;;;20.20;99.90;;;;;;4999653;28;20021;-81
2022/10/24 12:19:09;;;;;;;1999.90;999.90;;;20.10;99.90;;;;;;4997111;28;20028;-80